Time;durP1;ratioP1;P1;durP2;ratioP2;P2;SDS_P1;SDS_P2;PMS_P1;PMS_P2;Temp;Humidity;BMP_temperature;BMP_pressure;BME280_temperature;BME280_humidity;BME280_pressure;Samples;Min_cycle;Max_cycle;Signal;HPM_P1;HPM_P2
2022/01/05 00:01:10;;;;;;;11.52;2.10;;;;;;;;;;5066656;28;20028;-72
2022/01/05 00:03:36;;;;;;;5.70;1.58;;;;;;;;;;5064890;28;20032;-73
2022/01/05 00:06:02;;;;;;;5.15;1.88;;;;;;;;;;5061478;28;20570;-72
2022/01/05 00:08:28;;;;;;;8.45;1.88;;;;;;;;;;5068169;28;20064;-72
2022/01/05 00:10:53;;;;;;;6.00;1.70;;;;;;;;;;5067357;28;20063;-72
2022/01/05 00:13:19;;;;;;;10.73;2.03;;;;;;;;;;5057698;28;20047;-72
2022/01/05 00:15:44;;;;;;;8.18;1.88;;;;;;;;;;5067279;28;20051;-72
2022/01/05 00:18:10;;;;;;;6.60;1.70;;;;;;;;;;5068042;28;20032;-72
2022/01/05 00:20:35;;;;;;;5.22;1.80;;;;;;;;;;5068252;28;20085;-71
2022/01/05 00:23:01;;;;;;;9.68;1.98;;;;;;;;;;5069839;28;20458;-71
2022/01/05 00:25:26;;;;;;;6.43;1.80;;;;;;;;;;5070498;28;20497;-72
2022/01/05 00:27:52;;;;;;;4.97;2.00;;;;;;;;;;5073401;28;20071;-72
2022/01/05 00:30:17;;;;;;;7.63;1.90;;;;;;;;;;5070869;28;20073;-71
2022/01/05 00:32:42;;;;;;;11.52;1.95;;;;;;;;;;5071319;28;20036;-71
2022/01/05 00:35:08;;;;;;;9.88;1.80;;;;;;;;;;5069610;28;20028;-71
2022/01/05 00:37:34;;;;;;;7.05;1.65;;;;;;;;;;5073199;28;20032;-70
2022/01/05 00:39:59;;;;;;;7.53;1.70;;;;;;;;;;5070912;28;20039;-70
2022/01/05 00:42:25;;;;;;;8.25;1.83;;;;;;;;;;5072605;28;20111;-70
2022/01/05 00:44:50;;;;;;;9.60;1.83;;;;;;;;;;5068724;28;20037;-72
2022/01/05 00:47:16;;;;;;;7.18;1.85;;;;;;;;;;5070327;28;20062;-69
2022/01/05 00:49:42;;;;;;;10.82;2.22;;;;;;;;;;5071920;28;20112;-69
2022/01/05 00:52:07;;;;;;;9.25;2.22;;;;;;;;;;5071222;28;20039;-68
2022/01/05 00:54:33;;;;;;;9.18;2.50;;;;;;;;;;5072584;28;20032;-68
2022/01/05 00:56:58;;;;;;;12.73;2.63;;;;;;;;;;5071365;28;20039;-67
2022/01/05 00:59:24;;;;;;;11.02;2.08;;;;;;;;;;5070155;28;20109;-67
2022/01/05 01:01:50;;;;;;;10.02;2.90;;;;;;;;;;5069310;28;20037;-70
2022/01/05 01:04:15;;;;;;;7.28;2.58;;;;;;;;;;5070410;28;20042;-67
2022/01/05 01:06:41;;;;;;;9.15;2.35;;;;;;;;;;5070411;28;20060;-67
2022/01/05 01:09:07;;;;;;;11.82;2.78;;;;;;;;;;5071837;28;20033;-67
2022/01/05 01:11:33;;;;;;;9.32;2.53;;;;;;;;;;5072201;28;20037;-66
2022/01/05 01:13:58;;;;;;;9.20;2.40;;;;;;;;;;5068569;28;20114;-66
2022/01/05 01:16:24;;;;;;;10.70;3.03;;;;;;;;;;5071237;28;20039;-66
2022/01/05 01:18:49;;;;;;;6.70;2.25;;;;;;;;;;5070318;28;20119;-67
2022/01/05 01:21:15;;;;;;;10.02;2.60;;;;;;;;;;5070913;28;20052;-66
2022/01/05 01:23:48;;;;;;;12.85;2.95;;;;;;;;;;5072134;28;20028;-66
2022/01/05 01:26:14;;;;;;;9.30;2.42;;;;;;;;;;5071200;28;20097;-65
2022/01/05 01:28:39;;;;;;;13.88;2.50;;;;;;;;;;5069024;28;20483;-65
2022/01/05 01:31:05;;;;;;;9.93;2.55;;;;;;;;;;5065013;28;20041;-66
2022/01/05 01:33:30;;;;;;;9.50;2.67;;;;;;;;;;5072012;28;20029;-65
2022/01/05 01:35:55;;;;;;;10.13;3.10;;;;;;;;;;5082604;28;20040;-66
2022/01/05 01:38:21;;;;;;;11.32;3.28;;;;;;;;;;5072717;28;20133;-65
2022/01/05 01:40:46;;;;;;;7.85;2.33;;;;;;;;;;5070968;28;20024;-65
2022/01/05 01:43:12;;;;;;;10.27;2.78;;;;;;;;;;5070008;28;20035;-65
2022/01/05 01:45:37;;;;;;;9.70;2.92;;;;;;;;;;5070653;28;20386;-65
2022/01/05 01:48:03;;;;;;;11.82;2.95;;;;;;;;;;5069929;28;20032;-65
2022/01/05 01:50:28;;;;;;;9.05;2.28;;;;;;;;;;5071204;28;20058;-65
2022/01/05 01:52:54;;;;;;;9.00;2.88;;;;;;;;;;5071370;28;20541;-67
2022/01/05 01:55:20;;;;;;;9.38;2.80;;;;;;;;;;5070755;28;20039;-65
2022/01/05 01:57:46;;;;;;;11.77;3.03;;;;;;;;;;5070466;28;20527;-65
2022/01/05 02:00:12;;;;;;;11.27;2.70;;;;;;;;;;5071171;28;20032;-66
2022/01/05 02:02:37;;;;;;;8.30;2.13;;;;;;;;;;5066766;28;20367;-65
2022/01/05 02:05:04;;;;;;;11.02;2.65;;;;;;;;;;5064209;28;20041;-65
2022/01/05 02:07:30;;;;;;;8.50;2.03;;;;;;;;;;5065046;28;20029;-65
2022/01/05 02:09:55;;;;;;;14.70;2.40;;;;;;;;;;5070618;28;20478;-66
2022/01/05 02:12:26;;;;;;;8.45;2.20;;;;;;;;;;5068956;28;20028;-65
2022/01/05 02:14:52;;;;;;;8.82;2.05;;;;;;;;;;5068193;28;20509;-65
2022/01/05 02:17:21;;;;;;;7.30;2.30;;;;;;;;;;5070332;28;20043;-64
2022/01/05 02:19:46;;;;;;;10.93;2.00;;;;;;;;;;5068774;28;20155;-64
2022/01/05 02:22:12;;;;;;;10.35;2.22;;;;;;;;;;5068507;28;20032;-64
2022/01/05 02:24:37;;;;;;;10.10;2.13;;;;;;;;;;5069476;28;20059;-64
2022/01/05 02:27:04;;;;;;;6.15;1.83;;;;;;;;;;5070020;28;20029;-64
2022/01/05 02:29:29;;;;;;;8.23;2.17;;;;;;;;;;5070908;28;20466;-64
2022/01/05 02:31:57;;;;;;;5.95;2.08;;;;;;;;;;5068950;28;20034;-66
2022/01/05 02:34:22;;;;;;;9.15;2.40;;;;;;;;;;5067809;28;20194;-64
2022/01/05 02:36:47;;;;;;;9.85;1.92;;;;;;;;;;5067619;28;20115;-64
2022/01/05 02:39:13;;;;;;;4.95;1.70;;;;;;;;;;5069064;28;20114;-65
2022/01/05 02:41:38;;;;;;;8.90;2.33;;;;;;;;;;5068944;28;20047;-65
2022/01/05 02:44:04;;;;;;;8.68;2.42;;;;;;;;;;5068104;28;20040;-64
2022/01/05 02:46:29;;;;;;;7.07;1.80;;;;;;;;;;5069782;28;20101;-65
2022/01/05 02:48:55;;;;;;;14.88;2.40;;;;;;;;;;5071098;28;20107;-66
2022/01/05 02:51:21;;;;;;;7.45;2.30;;;;;;;;;;5070579;28;20037;-64
2022/01/05 02:53:47;;;;;;;13.10;2.58;;;;;;;;;;5067476;28;20081;-64
2022/01/05 02:56:13;;;;;;;10.20;3.08;;;;;;;;;;5070088;28;20040;-64
2022/01/05 02:58:38;;;;;;;10.55;2.60;;;;;;;;;;5069378;28;20032;-64
2022/01/05 03:01:04;;;;;;;7.18;2.40;;;;;;;;;;5068145;28;20038;-64
2022/01/05 03:03:30;;;;;;;7.95;2.28;;;;;;;;;;5066162;28;20039;-64
2022/01/05 03:05:55;;;;;;;11.00;2.63;;;;;;;;;;5067825;28;20116;-65
2022/01/05 03:08:21;;;;;;;10.00;2.42;;;;;;;;;;5067867;28;20047;-63
2022/01/05 03:10:47;;;;;;;12.32;2.40;;;;;;;;;;5070183;28;20040;-63
2022/01/05 03:13:12;;;;;;;13.57;3.13;;;;;;;;;;5068728;28;20040;-63
2022/01/05 03:15:37;;;;;;;8.75;2.70;;;;;;;;;;5068929;28;20532;-63
2022/01/05 03:18:04;;;;;;;9.70;3.20;;;;;;;;;;5069009;28;20394;-64
2022/01/05 03:20:30;;;;;;;12.90;3.00;;;;;;;;;;5071119;28;20097;-63
2022/01/05 03:22:58;;;;;;;6.57;2.28;;;;;;;;;;5067455;28;20039;-65
2022/01/05 03:25:24;;;;;;;9.65;2.35;;;;;;;;;;5068435;28;20032;-64
2022/01/05 03:27:51;;;;;;;5.22;2.20;;;;;;;;;;5069684;28;20067;-64
2022/01/05 03:30:26;;;;;;;16.95;2.67;;;;;;;;;;5070054;28;20115;-64
2022/01/05 03:35:26;;;;;;;4.30;1.70;;;;;;;;;;5070125;28;20464;-64
2022/01/05 03:37:51;;;;;;;8.20;2.80;;;;;;;;;;5069850;28;20074;-63
2022/01/05 03:40:17;;;;;;;15.10;2.85;;;;;;;;;;5070040;28;20677;-64
2022/01/05 03:42:42;;;;;;;9.10;2.78;;;;;;;;;;5069656;28;20040;-64
2022/01/05 03:45:08;;;;;;;17.50;2.95;;;;;;;;;;5060196;28;20043;-64
2022/01/05 03:47:34;;;;;;;6.38;2.30;;;;;;;;;;5065848;28;20194;-64
2022/01/05 03:49:59;;;;;;;8.00;2.47;;;;;;;;;;5069084;28;20045;-66
2022/01/05 03:52:25;;;;;;;10.05;2.60;;;;;;;;;;5068205;28;20123;-64
2022/01/05 03:54:50;;;;;;;14.73;2.17;;;;;;;;;;5070152;28;20025;-64
2022/01/05 03:57:16;;;;;;;11.95;2.95;;;;;;;;;;5070004;28;20086;-64
2022/01/05 03:59:41;;;;;;;6.88;2.47;;;;;;;;;;5067122;28;20028;-64
2022/01/05 04:02:07;;;;;;;14.23;4.00;;;;;;;;;;5071122;28;20363;-64
2022/01/05 04:04:32;;;;;;;4.25;1.95;;;;;;;;;;5073615;28;20032;-64
2022/01/05 04:06:57;;;;;;;8.50;2.80;;;;;;;;;;5072809;28;20036;-64
2022/01/05 04:09:23;;;;;;;7.13;2.38;;;;;;;;;;5071712;28;20036;-63
2022/01/05 04:11:48;;;;;;;10.20;2.60;;;;;;;;;;5073022;28;20028;-64
2022/01/05 04:14:13;;;;;;;5.20;2.28;;;;;;;;;;5068083;28;20127;-64
2022/01/05 04:16:39;;;;;;;6.03;2.35;;;;;;;;;;5073615;28;20028;-63
2022/01/05 04:19:04;;;;;;;5.88;1.90;;;;;;;;;;5073683;28;20032;-64
2022/01/05 04:21:30;;;;;;;5.00;2.25;;;;;;;;;;5073747;28;20028;-63
2022/01/05 04:23:55;;;;;;;8.93;3.00;;;;;;;;;;5074602;28;20115;-63
2022/01/05 04:26:20;;;;;;;9.15;2.58;;;;;;;;;;5068415;28;20662;-63
2022/01/05 04:28:46;;;;;;;9.80;2.72;;;;;;;;;;5068355;28;20029;-63
2022/01/05 04:31:11;;;;;;;10.25;2.50;;;;;;;;;;5069972;28;20394;-65
2022/01/05 04:33:37;;;;;;;8.25;2.03;;;;;;;;;;5064774;28;20029;-64
2022/01/05 04:36:02;;;;;;;4.47;2.28;;;;;;;;;;5070617;28;20028;-66
2022/01/05 04:38:28;;;;;;;8.32;3.00;;;;;;;;;;5072254;28;20031;-63
2022/01/05 04:40:54;;;;;;;8.30;2.30;;;;;;;;;;5072312;28;20032;-65
2022/01/05 04:43:20;;;;;;;3.28;1.55;;;;;;;;;;5067562;28;20032;-64
2022/01/05 04:45:45;;;;;;;5.32;2.08;;;;;;;;;;5068695;28;20090;-64
2022/01/05 04:48:11;;;;;;;7.05;2.65;;;;;;;;;;5071002;28;20032;-66
2022/01/05 04:50:36;;;;;;;7.65;2.40;;;;;;;;;;5070487;28;20111;-64
2022/01/05 04:53:01;;;;;;;5.03;1.70;;;;;;;;;;5066811;28;20024;-66
2022/01/05 04:55:27;;;;;;;4.47;1.50;;;;;;;;;;5070709;28;20030;-64
2022/01/05 04:57:52;;;;;;;6.40;2.15;;;;;;;;;;5071383;28;20036;-64
2022/01/05 05:00:18;;;;;;;6.95;2.10;;;;;;;;;;5067812;28;20032;-64
2022/01/05 05:02:43;;;;;;;7.18;2.35;;;;;;;;;;5068373;28;20383;-64
2022/01/05 05:05:08;;;;;;;7.50;1.45;;;;;;;;;;5071349;28;20044;-64
2022/01/05 05:07:34;;;;;;;7.25;2.10;;;;;;;;;;5071258;28;20029;-63
2022/01/05 05:09:59;;;;;;;5.43;1.58;;;;;;;;;;5073059;28;20044;-63
2022/01/05 05:12:24;;;;;;;10.70;3.47;;;;;;;;;;5070250;28;20679;-63
2022/01/05 05:14:50;;;;;;;10.18;2.00;;;;;;;;;;5068155;28;20052;-63
2022/01/05 05:17:16;;;;;;;5.00;2.13;;;;;;;;;;5072079;28;20493;-63
2022/01/05 05:19:41;;;;;;;10.50;2.20;;;;;;;;;;5071336;28;20028;-63
2022/01/05 05:22:07;;;;;;;8.77;1.88;;;;;;;;;;5072988;28;20021;-66
2022/01/05 05:24:32;;;;;;;8.48;2.22;;;;;;;;;;5071497;28;20110;-63
2022/01/05 05:26:57;;;;;;;12.32;2.33;;;;;;;;;;5071009;28;20031;-63
2022/01/05 05:29:23;;;;;;;6.97;2.65;;;;;;;;;;5069511;28;20217;-65
2022/01/05 05:31:48;;;;;;;3.60;1.00;;;;;;;;;;5071361;28;20398;-63
2022/01/05 05:34:14;;;;;;;9.73;3.05;;;;;;;;;;5065252;28;20474;-63
2022/01/05 05:36:39;;;;;;;8.57;2.22;;;;;;;;;;5073231;28;20032;-63
2022/01/05 05:39:05;;;;;;;5.28;1.80;;;;;;;;;;5072353;28;20526;-69
2022/01/05 05:41:30;;;;;;;9.52;2.70;;;;;;;;;;5071329;28;20024;-63
2022/01/05 05:43:55;;;;;;;10.52;2.28;;;;;;;;;;5072833;28;20359;-63
2022/01/05 05:46:21;;;;;;;9.13;2.17;;;;;;;;;;5072577;28;20032;-63
2022/01/05 05:48:46;;;;;;;10.75;2.53;;;;;;;;;;5072362;28;20026;-64
2022/01/05 05:51:12;;;;;;;7.32;2.08;;;;;;;;;;5068982;28;20032;-63
2022/01/05 05:53:37;;;;;;;8.57;2.03;;;;;;;;;;5072081;28;20052;-63
2022/01/05 05:56:03;;;;;;;15.18;2.72;;;;;;;;;;5072847;28;20029;-63
2022/01/05 05:58:28;;;;;;;9.75;2.00;;;;;;;;;;5071457;28;20228;-63
2022/01/05 06:00:54;;;;;;;5.30;2.13;;;;;;;;;;5072821;28;20040;-63
2022/01/05 06:03:19;;;;;;;8.55;2.70;;;;;;;;;;5071737;28;20047;-64
2022/01/05 06:05:45;;;;;;;5.22;2.15;;;;;;;;;;5053794;28;20033;-63
2022/01/05 06:08:10;;;;;;;9.32;2.40;;;;;;;;;;5070530;28;20029;-64
2022/01/05 06:10:35;;;;;;;15.38;2.67;;;;;;;;;;5060805;28;20448;-63
2022/01/05 06:13:01;;;;;;;6.60;1.88;;;;;;;;;;5071829;28;20036;-63
2022/01/05 06:15:26;;;;;;;11.02;2.65;;;;;;;;;;5068073;28;20059;-63
2022/01/05 06:17:52;;;;;;;11.00;2.33;;;;;;;;;;5072060;28;20454;-63
2022/01/05 06:20:17;;;;;;;9.82;2.60;;;;;;;;;;5071834;28;20029;-62
2022/01/05 06:22:43;;;;;;;9.35;2.65;;;;;;;;;;5071933;28;20029;-62
2022/01/05 06:25:10;;;;;;;9.80;2.15;;;;;;;;;;5071204;28;20107;-62
2022/01/05 06:27:36;;;;;;;12.18;3.03;;;;;;;;;;5072480;28;20025;-63
2022/01/05 06:30:06;;;;;;;8.45;2.33;;;;;;;;;;5064337;28;20098;-62
2022/01/05 06:32:33;;;;;;;8.80;2.70;;;;;;;;;;5068566;28;20035;-64
2022/01/05 06:35:00;;;;;;;7.72;2.30;;;;;;;;;;5066933;28;20033;-63
2022/01/05 06:37:25;;;;;;;6.72;2.55;;;;;;;;;;5059974;28;20066;-63
2022/01/05 06:39:50;;;;;;;9.10;3.00;;;;;;;;;;5072015;28;20052;-62
2022/01/05 06:42:16;;;;;;;11.25;2.47;;;;;;;;;;5069882;28;20047;-63
2022/01/05 06:44:41;;;;;;;6.47;2.63;;;;;;;;;;5069494;28;20049;-64
2022/01/05 06:47:07;;;;;;;7.53;2.85;;;;;;;;;;5066770;28;20036;-62
2022/01/05 06:49:32;;;;;;;8.13;3.30;;;;;;;;;;5054660;28;20043;-62
2022/01/05 06:51:58;;;;;;;5.43;2.38;;;;;;;;;;5051998;28;20500;-62
2022/01/05 06:54:23;;;;;;;11.90;3.58;;;;;;;;;;5051248;28;20025;-62
2022/01/05 06:56:48;;;;;;;7.50;3.05;;;;;;;;;;5057294;28;20055;-62
2022/01/05 06:59:15;;;;;;;10.40;2.80;;;;;;;;;;5063221;28;20173;-62
2022/01/05 07:01:40;;;;;;;16.38;3.00;;;;;;;;;;5072032;28;20468;-62
2022/01/05 07:04:05;;;;;;;7.53;2.67;;;;;;;;;;5071920;28;20039;-63
2022/01/05 07:06:31;;;;;;;6.68;2.97;;;;;;;;;;5070996;28;20055;-63
2022/01/05 07:08:56;;;;;;;10.30;3.08;;;;;;;;;;5071874;28;20468;-63
2022/01/05 07:11:21;;;;;;;6.32;3.00;;;;;;;;;;5071075;28;20024;-63
2022/01/05 07:13:47;;;;;;;10.13;3.25;;;;;;;;;;5069712;28;20539;-65
2022/01/05 07:16:12;;;;;;;13.35;2.72;;;;;;;;;;5071325;28;20036;-65
2022/01/05 07:18:38;;;;;;;10.40;2.72;;;;;;;;;;5071107;28;20094;-65
2022/01/05 07:21:03;;;;;;;7.72;2.88;;;;;;;;;;5071766;28;20123;-63
2022/01/05 07:23:28;;;;;;;7.35;2.75;;;;;;;;;;5070662;28;20067;-63
2022/01/05 07:25:54;;;;;;;15.60;2.88;;;;;;;;;;5072201;28;20063;-63
2022/01/05 07:28:19;;;;;;;8.85;2.83;;;;;;;;;;5070432;28;20510;-63
2022/01/05 07:30:44;;;;;;;8.82;3.67;;;;;;;;;;5071505;28;20036;-63
2022/01/05 07:33:10;;;;;;;8.23;3.47;;;;;;;;;;5069776;28;20029;-64
2022/01/05 07:35:36;;;;;;;9.88;2.72;;;;;;;;;;5059136;28;20025;-63
2022/01/05 07:38:01;;;;;;;9.18;3.22;;;;;;;;;;5055412;28;20025;-63
2022/01/05 07:40:26;;;;;;;8.10;3.30;;;;;;;;;;5054375;28;20079;-64
2022/01/05 07:42:52;;;;;;;8.85;3.42;;;;;;;;;;5055557;28;20029;-63
2022/01/05 07:45:17;;;;;;;9.70;2.75;;;;;;;;;;5054711;28;20054;-63
2022/01/05 07:47:43;;;;;;;13.57;2.95;;;;;;;;;;5070473;28;20033;-63
2022/01/05 07:50:14;;;;;;;8.70;3.17;;;;;;;;;;5056739;28;20025;-63
2022/01/05 07:52:41;;;;;;;5.20;2.80;;;;;;;;;;5055243;28;20039;-63
2022/01/05 07:55:07;;;;;;;5.90;2.70;;;;;;;;;;5054767;28;20124;-63
2022/01/05 07:57:34;;;;;;;11.95;3.40;;;;;;;;;;5054346;28;20487;-63
2022/01/05 08:00:00;;;;;;;6.13;2.58;;;;;;;;;;5054281;28;20379;-63
2022/01/05 08:02:25;;;;;;;8.93;3.22;;;;;;;;;;5054297;28;20032;-63
2022/01/05 08:04:50;;;;;;;8.57;2.63;;;;;;;;;;5065723;28;20439;-63
2022/01/05 08:07:16;;;;;;;5.50;2.65;;;;;;;;;;5073347;28;20460;-65
2022/01/05 08:09:42;;;;;;;8.80;3.22;;;;;;;;;;5074336;28;20047;-64
2022/01/05 08:12:08;;;;;;;8.23;3.70;;;;;;;;;;5074729;28;20497;-63
2022/01/05 08:14:33;;;;;;;9.98;3.72;;;;;;;;;;5073862;28;20259;-63
2022/01/05 08:16:59;;;;;;;6.53;2.95;;;;;;;;;;5074625;28;20527;-63
2022/01/05 08:19:24;;;;;;;6.18;3.42;;;;;;;;;;5070712;28;20048;-63
2022/01/05 08:21:50;;;;;;;10.85;3.63;;;;;;;;;;5054812;28;20071;-64
2022/01/05 08:24:15;;;;;;;7.47;2.75;;;;;;;;;;5054374;28;20044;-66
2022/01/05 08:26:40;;;;;;;10.07;3.42;;;;;;;;;;5054650;28;20025;-64
2022/01/05 08:29:06;;;;;;;15.73;3.35;;;;;;;;;;5054672;28;20111;-63
2022/01/05 08:31:31;;;;;;;7.18;3.30;;;;;;;;;;5053882;28;20040;-63
2022/01/05 08:33:59;;;;;;;18.63;3.45;;;;;;;;;;5056122;28;20098;-64
2022/01/05 08:36:25;;;;;;;9.82;2.55;;;;;;;;;;5073142;28;20037;-64
2022/01/05 08:38:51;;;;;;;12.60;3.15;;;;;;;;;;5076748;28;20131;-64
2022/01/05 08:41:16;;;;;;;7.95;2.80;;;;;;;;;;5075346;28;20059;-66
2022/01/05 08:43:42;;;;;;;10.00;3.10;;;;;;;;;;5074492;28;20488;-64
2022/01/05 08:46:07;;;;;;;13.20;3.35;;;;;;;;;;5073730;28;20028;-64
2022/01/05 08:48:33;;;;;;;9.57;2.45;;;;;;;;;;5070191;28;20355;-63
2022/01/05 08:50:59;;;;;;;17.00;3.45;;;;;;;;;;5054402;28;20464;-63
2022/01/05 08:53:25;;;;;;;10.63;3.28;;;;;;;;;;5067747;28;20420;-63
2022/01/05 08:55:50;;;;;;;12.60;2.95;;;;;;;;;;5074193;28;20024;-62
2022/01/05 08:58:17;;;;;;;9.50;2.85;;;;;;;;;;5073985;28;20035;-66
2022/01/05 09:00:43;;;;;;;13.32;3.58;;;;;;;;;;5072207;28;20495;-63
2022/01/05 09:03:13;;;;;;;12.27;3.67;;;;;;;;;;5072888;28;20029;-62
2022/01/05 09:05:39;;;;;;;8.73;3.10;;;;;;;;;;5070431;28;20059;-63
2022/01/05 09:08:05;;;;;;;9.05;2.95;;;;;;;;;;5071882;28;20580;-63
2022/01/05 09:10:31;;;;;;;9.45;3.08;;;;;;;;;;5067928;28;20119;-63
2022/01/05 09:12:57;;;;;;;10.10;3.22;;;;;;;;;;5064448;28;20029;-64
2022/01/05 09:15:23;;;;;;;7.15;2.63;;;;;;;;;;5056605;28;20052;-62
2022/01/05 09:17:49;;;;;;;7.95;3.05;;;;;;;;;;5073575;28;20021;-65
2022/01/05 09:20:14;;;;;;;11.95;3.72;;;;;;;;;;5071600;28;20507;-65
2022/01/05 09:22:40;;;;;;;9.82;3.72;;;;;;;;;;5072403;28;20025;-65
2022/01/05 09:25:09;;;;;;;15.20;4.65;;;;;;;;;;5073286;28;20036;-63
2022/01/05 09:27:36;;;;;;;13.07;4.78;;;;;;;;;;5072657;28;20082;-64
2022/01/05 09:30:02;;;;;;;12.18;4.88;;;;;;;;;;5073341;28;20119;-64
2022/01/05 09:32:27;;;;;;;11.65;5.22;;;;;;;;;;5072450;28;20115;-64
2022/01/05 09:34:52;;;;;;;13.75;5.20;;;;;;;;;;5069822;28;20025;-65
2022/01/05 09:37:25;;;;;;;5.82;3.15;;;;;;;;;;5071425;28;20429;-67
2022/01/05 09:42:36;;;;;;;11.07;5.07;;;;;;;;;;5072378;28;20044;-63
2022/01/05 09:45:27;;;;;;;14.35;4.50;;;;;;;;;;5069553;28;20113;-65
2022/01/05 09:48:28;;;;;;;17.23;5.15;;;;;;;;;;5072334;28;20052;-65
2022/01/05 09:51:05;;;;;;;12.07;5.60;;;;;;;;;;5068408;28;20509;-64
2022/01/05 09:53:32;;;;;;;11.45;4.95;;;;;;;;;;5069792;28;20035;-63
2022/01/05 09:55:58;;;;;;;11.50;5.43;;;;;;;;;;5072424;28;20025;-65
2022/01/05 09:58:24;;;;;;;15.15;4.85;;;;;;;;;;5052035;28;20111;-64
2022/01/05 10:00:50;;;;;;;12.18;5.03;;;;;;;;;;5069851;28;20040;-64
2022/01/05 10:03:17;;;;;;;17.58;5.53;;;;;;;;;;5071924;28;20041;-64
2022/01/05 10:05:42;;;;;;;9.40;4.38;;;;;;;;;;5072288;28;20055;-66
2022/01/05 10:08:09;;;;;;;12.20;5.22;;;;;;;;;;5072457;28;20082;-73
2022/01/05 10:10:35;;;;;;;13.85;5.70;;;;;;;;;;5070481;28;20028;-65
2022/01/05 10:13:01;;;;;;;13.40;5.18;;;;;;;;;;5070345;28;20043;-65
2022/01/05 10:15:27;;;;;;;12.65;4.43;;;;;;;;;;5071124;28;20055;-67
2022/01/05 10:18:09;;;;;;;12.48;4.65;;;;;;;;;;5064862;28;20028;-62
2022/01/05 10:20:35;;;;;;;12.13;4.80;;;;;;;;;;5071557;28;20032;-63
2022/01/05 10:23:00;;;;;;;11.50;4.20;;;;;;;;;;5071609;28;20025;-63
2022/01/05 10:25:25;;;;;;;13.77;5.63;;;;;;;;;;5071519;28;20037;-63
2022/01/05 10:28:02;;;;;;;24.10;7.32;;;;;;;;;;5070854;28;20039;-61
2022/01/05 10:30:36;;;;;;;11.65;4.55;;;;;;;;;;5067743;28;20486;-63
2022/01/05 10:33:02;;;;;;;11.90;4.22;;;;;;;;;;5071526;28;20036;-63
2022/01/05 10:35:28;;;;;;;10.10;4.45;;;;;;;;;;5070671;28;20128;-65
2022/01/05 10:38:03;;;;;;;10.25;4.38;;;;;;;;;;5070216;28;20474;-64
2022/01/05 10:40:33;;;;;;;9.88;4.60;;;;;;;;;;5070081;28;20119;-65
2022/01/05 10:42:59;;;;;;;9.70;3.88;;;;;;;;;;5071408;28;20440;-64
2022/01/05 10:45:46;;;;;;;15.43;5.53;;;;;;;;;;5069536;28;20029;-65
2022/01/05 10:48:16;;;;;;;16.17;4.63;;;;;;;;;;5071474;28;20032;-66
2022/01/05 10:50:44;;;;;;;22.55;5.32;;;;;;;;;;5071076;28;20594;-66
2022/01/05 10:53:14;;;;;;;14.05;4.15;;;;;;;;;;5072135;28;20145;-64
2022/01/05 10:55:42;;;;;;;12.55;4.30;;;;;;;;;;5074931;28;20032;-64
2022/01/05 10:58:12;;;;;;;13.60;5.25;;;;;;;;;;5075911;28;20032;-64
2022/01/05 11:00:43;;;;;;;11.85;3.97;;;;;;;;;;5069729;28;20060;-64
2022/01/05 11:03:27;;;;;;;;;;;;;;;;;;5072292;28;20457;-63
2022/01/05 11:06:19;;;;;;;10.82;5.38;;;;;;;;;;5071067;28;19912;-63
2022/01/05 11:09:00;;;;;;;12.90;5.05;;;;;;;;;;5069548;28;20468;-63
2022/01/05 11:11:47;;;;;;;14.60;5.78;;;;;;;;;;5067405;28;20032;-65
2022/01/05 11:14:14;;;;;;;14.43;5.13;;;;;;;;;;5069836;28;20052;-67
2022/01/05 11:16:47;;;;;;;15.63;6.68;;;;;;;;;;5070330;28;20036;-71
2022/01/05 11:19:23;;;;;;;9.88;4.75;;;;;;;;;;5071455;28;20025;-64
2022/01/05 11:22:08;;;;;;;9.77;4.68;;;;;;;;;;5071312;28;20032;-66
2022/01/05 11:24:46;;;;;;;13.70;5.07;;;;;;;;;;5070810;28;20040;-64
2022/01/05 11:27:16;;;;;;;13.23;5.90;;;;;;;;;;5071323;28;20119;-63
2022/01/05 11:29:43;;;;;;;17.75;6.88;;;;;;;;;;5070851;28;20039;-65
2022/01/05 11:32:11;;;;;;;11.15;4.65;;;;;;;;;;5071691;28;20036;-66
2022/01/05 11:34:38;;;;;;;15.80;6.20;;;;;;;;;;5070665;28;20060;-65
2022/01/05 11:37:05;;;;;;;16.88;5.30;;;;;;;;;;5069391;28;20040;-65
2022/01/05 11:39:32;;;;;;;10.48;4.85;;;;;;;;;;5070086;28;20151;-66
2022/01/05 11:42:01;;;;;;;8.82;5.15;;;;;;;;;;5070902;28;20502;-66
2022/01/05 11:44:29;;;;;;;14.52;6.10;;;;;;;;;;5068978;28;20486;-66
2022/01/05 11:46:55;;;;;;;13.73;6.05;;;;;;;;;;5071395;28;20040;-65
2022/01/05 11:49:28;;;;;;;17.10;6.32;;;;;;;;;;5070626;28;20039;-67
2022/01/05 11:51:58;;;;;;;23.08;5.65;;;;;;;;;;5071423;28;20060;-63
2022/01/05 11:54:26;;;;;;;12.13;5.35;;;;;;;;;;5069959;28;20033;-67
2022/01/05 11:56:57;;;;;;;10.15;4.50;;;;;;;;;;5070939;28;20033;-66
2022/01/05 11:59:34;;;;;;;;;;;;;;;;;;5067490;28;20098;-67
2022/01/05 12:02:06;;;;;;;10.60;5.25;;;;;;;;;;5070799;28;19916;-66
2022/01/05 12:04:51;;;;;;;9.13;4.97;;;;;;;;;;5069726;28;20029;-65
2022/01/05 12:07:33;;;;;;;8.48;4.47;;;;;;;;;;5070542;28;20359;-66
2022/01/05 12:09:59;;;;;;;13.77;5.93;;;;;;;;;;5070928;28;20032;-67
2022/01/05 12:12:29;;;;;;;10.38;4.35;;;;;;;;;;5069914;28;20029;-65
2022/01/05 12:14:55;;;;;;;13.23;5.55;;;;;;;;;;5071000;28;20525;-64
2022/01/05 12:17:21;;;;;;;17.52;6.22;;;;;;;;;;5070993;28;20086;-64
2022/01/05 12:19:47;;;;;;;10.85;4.95;;;;;;;;;;5068731;28;20040;-66
2022/01/05 12:22:18;;;;;;;9.20;4.00;;;;;;;;;;5069744;28;20033;-66
2022/01/05 12:24:52;;;;;;;10.75;4.43;;;;;;;;;;5073497;28;20054;-66
2022/01/05 12:27:22;;;;;;;15.98;4.85;;;;;;;;;;5072925;28;20055;-65
2022/01/05 12:29:48;;;;;;;10.07;3.80;;;;;;;;;;5073526;28;20094;-65
2022/01/05 12:32:33;;;;;;;13.90;4.28;;;;;;;;;;5074198;28;20032;-65
2022/01/05 12:35:15;;;;;;;11.27;4.43;;;;;;;;;;5074267;28;20041;-64
2022/01/05 12:37:57;;;;;;;10.63;3.90;;;;;;;;;;5053473;28;20029;-66
2022/01/05 12:40:45;;;;;;;8.80;3.42;;;;;;;;;;5058834;28;20029;-65
2022/01/05 12:43:11;;;;;;;12.00;4.22;;;;;;;;;;5074414;28;20032;-66
2022/01/05 12:45:57;;;;;;;12.73;5.70;;;;;;;;;;5073369;28;20028;-65
2022/01/05 12:51:23;;;;;;;12.80;4.60;;;;;;;;;;5073835;28;20119;-65
2022/01/05 12:53:55;;;;;;;12.63;4.90;;;;;;;;;;5062921;28;20043;-67
2022/01/05 12:56:23;;;;;;;11.80;4.15;;;;;;;;;;5073849;28;20035;-66
2022/01/05 12:58:51;;;;;;;16.52;3.60;;;;;;;;;;5072928;28;20536;-66
2022/01/05 13:01:21;;;;;;;14.00;4.03;;;;;;;;;;5073468;28;20028;-65
2022/01/05 13:03:47;;;;;;;10.35;4.43;;;;;;;;;;5072962;28;20458;-65
2022/01/05 13:06:18;;;;;;;11.15;3.80;;;;;;;;;;5068868;28;20025;-65
2022/01/05 13:08:55;;;;;;;20.50;5.57;;;;;;;;;;5055715;28;20040;-65
2022/01/05 13:11:51;;;;;;;16.25;4.85;;;;;;;;;;5073632;28;20060;-65
2022/01/05 13:14:25;;;;;;;18.30;4.80;;;;;;;;;;5061066;28;20079;-65
2022/01/05 13:16:56;;;;;;;16.83;4.97;;;;;;;;;;5057660;28;20029;-65
2022/01/05 13:19:30;;;;;;;11.30;4.07;;;;;;;;;;5052094;28;20115;-66
2022/01/05 13:21:59;;;;;;;12.82;4.40;;;;;;;;;;5052718;28;20040;-65
2022/01/05 13:24:47;;;;;;;13.55;4.22;;;;;;;;;;5062561;28;20037;-66
2022/01/05 13:27:14;;;;;;;13.48;4.57;;;;;;;;;;5073705;28;20482;-66
2022/01/05 13:29:40;;;;;;;16.33;3.13;;;;;;;;;;5072509;28;20037;-64
2022/01/05 13:32:08;;;;;;;10.65;3.92;;;;;;;;;;5070344;28;20432;-65
2022/01/05 13:34:36;;;;;;;10.05;3.40;;;;;;;;;;5071805;28;20064;-67
2022/01/05 13:37:05;;;;;;;13.00;4.57;;;;;;;;;;5072754;28;20028;-67
2022/01/05 13:39:37;;;;;;;9.85;3.15;;;;;;;;;;5072371;28;20032;-68
2022/01/05 13:42:03;;;;;;;11.48;3.92;;;;;;;;;;5072644;28;20036;-67
2022/01/05 13:44:28;;;;;;;11.02;3.60;;;;;;;;;;5072609;28;20114;-67
2022/01/05 13:46:54;;;;;;;11.20;3.53;;;;;;;;;;5072396;28;20087;-71
2022/01/05 13:49:19;;;;;;;14.23;4.70;;;;;;;;;;5068042;28;20424;-64
2022/01/05 13:52:28;;;;;;;18.50;4.97;;;;;;;;;;5081400;28;21021;-66
2022/01/05 13:54:53;;;;;;;12.32;3.83;;;;;;;;;;5050344;28;20116;-65
2022/01/05 13:57:25;;;;;;;9.68;3.45;;;;;;;;;;5050336;28;20461;-67
2022/01/05 13:59:58;;;;;;;13.60;4.13;;;;;;;;;;5047884;28;20072;-68
2022/01/05 14:02:23;;;;;;;10.77;3.65;;;;;;;;;;5046500;28;20045;-67
2022/01/05 14:04:51;;;;;;;13.05;3.65;;;;;;;;;;5029696;28;20269;-67
2022/01/05 14:07:19;;;;;;;13.23;3.53;;;;;;;;;;5036477;28;20128;-66
2022/01/05 14:09:45;;;;;;;9.00;3.50;;;;;;;;;;5049448;28;20445;-67
2022/01/05 14:12:33;;;;;;;7.13;3.53;;;;;;;;;;5049757;28;20048;-67
2022/01/05 14:15:00;;;;;;;15.38;4.13;;;;;;;;;;5049980;28;20060;-65
2022/01/05 14:17:28;;;;;;;14.38;5.18;;;;;;;;;;5033032;28;20086;-66
2022/01/05 14:20:15;;;;;;;10.23;4.22;;;;;;;;;;5049634;28;20087;-65
2022/01/05 14:22:40;;;;;;;11.63;4.95;;;;;;;;;;5049049;28;20040;-67
2022/01/05 14:25:07;;;;;;;10.02;3.65;;;;;;;;;;5050695;28;20047;-68
2022/01/05 14:27:38;;;;;;;13.57;4.70;;;;;;;;;;5059728;28;20462;-68
2022/01/05 14:30:09;;;;;;;13.95;5.22;;;;;;;;;;5072172;28;20077;-66
2022/01/05 14:32:36;;;;;;;12.85;4.57;;;;;;;;;;5066738;28;20111;-67
2022/01/05 14:35:11;;;;;;;8.88;4.32;;;;;;;;;;5061698;28;20036;-66
2022/01/05 14:37:58;;;;;;;8.30;4.15;;;;;;;;;;5071463;28;20032;-67
2022/01/05 14:40:26;;;;;;;11.52;4.55;;;;;;;;;;5063212;28;20032;-67
2022/01/05 14:43:00;;;;;;;18.90;3.42;;;;;;;;;;5070013;28;20407;-67
2022/01/05 14:45:27;;;;;;;11.88;3.80;;;;;;;;;;5068890;28;20048;-68
2022/01/05 14:47:53;;;;;;;11.95;3.40;;;;;;;;;;5053041;28;20043;-67